sensor_id;sensor_type;location;lat;lon;timestamp;pressure;altitude;pressure_sealevel;temperature;humidity
38054;BME280;23859;50.672;7.164;2023-08-06T00:01:07;35068.38;;;-140.95;72.61
38054;BME280;23859;50.672;7.164;2023-08-06T00:03:33;35034.25;;;-140.95;73.15
38054;BME280;23859;50.672;7.164;2023-08-06T00:05:59;35024.19;;;-140.95;73.31
38054;BME280;23859;50.672;7.164;2023-08-06T00:08:25;35056.34;;;-140.95;72.72
38054;BME280;23859;50.672;7.164;2023-08-06T00:10:51;35088.47;;;-140.95;73.09
38054;BME280;23859;50.672;7.164;2023-08-06T00:13:17;35056.34;;;-140.95;73.12
38054;BME280;23859;50.672;7.164;2023-08-06T00:15:43;35088.47;;;-140.95;73.73
38054;BME280;23859;50.672;7.164;2023-08-06T00:18:09;35072.41;;;-140.95;73.46
38054;BME280;23859;50.672;7.164;2023-08-06T00:20:38;35076.44;;;-140.95;73.46
38054;BME280;23859;50.672;7.164;2023-08-06T00:23:04;35040.25;;;-140.95;72.90
38054;BME280;23859;50.672;7.164;2023-08-06T00:25:30;35070.41;;;-140.95;73.07
38054;BME280;23859;50.672;7.164;2023-08-06T00:27:56;35076.44;;;-140.95;72.92
38054;BME280;23859;50.672;7.164;2023-08-06T00:30:22;35064.38;;;-140.95;72.97
38054;BME280;23859;50.672;7.164;2023-08-06T00:32:48;35060.34;;;-140.95;72.67
38054;BME280;23859;50.672;7.164;2023-08-06T00:35:14;35048.31;;;-140.95;72.56
38054;BME280;23859;50.672;7.164;2023-08-06T00:37:41;35064.38;;;-140.95;72.46
38054;BME280;23859;50.672;7.164;2023-08-06T00:40:07;35042.28;;;-140.95;72.17
38054;BME280;23859;50.672;7.164;2023-08-06T00:42:34;35012.16;;;-140.95;72.16
38054;BME280;23859;50.672;7.164;2023-08-06T00:45:01;35020.19;;;-140.95;71.65
38054;BME280;23859;50.672;7.164;2023-08-06T00:47:27;35018.16;;;-140.95;71.63
38054;BME280;23859;50.672;7.164;2023-08-06T00:49:54;35016.16;;;-140.95;71.35
38054;BME280;23859;50.672;7.164;2023-08-06T00:52:20;34980.00;;;-140.95;71.84
38054;BME280;23859;50.672;7.164;2023-08-06T00:54:46;34975.97;;;-140.95;70.72
38054;BME280;23859;50.672;7.164;2023-08-06T00:57:12;34969.97;;;-140.95;71.00
38054;BME280;23859;50.672;7.164;2023-08-06T00:59:38;34975.97;;;-140.95;71.29
38054;BME280;23859;50.672;7.164;2023-08-06T01:02:05;34935.81;;;-140.95;71.61
38054;BME280;23859;50.672;7.164;2023-08-06T01:04:31;34959.91;;;-140.95;71.65
38054;BME280;23859;50.672;7.164;2023-08-06T01:15:21;35008.13;;;-140.95;71.08
38054;BME280;23859;50.672;7.164;2023-08-06T01:17:48;35014.16;;;-140.95;70.46
38054;BME280;23859;50.672;7.164;2023-08-06T01:20:15;34992.06;;;-140.95;70.98
38054;BME280;23859;50.672;7.164;2023-08-06T01:22:41;35028.22;;;-140.95;71.02
38054;BME280;23859;50.672;7.164;2023-08-06T01:25:08;35008.13;;;-140.95;70.63
38054;BME280;23859;50.672;7.164;2023-08-06T01:27:44;35032.22;;;-140.95;70.58
38054;BME280;23859;50.672;7.164;2023-08-06T01:30:16;35014.16;;;-140.95;70.52
38054;BME280;23859;50.672;7.164;2023-08-06T01:32:46;35012.16;;;-140.95;70.77
38054;BME280;23859;50.672;7.164;2023-08-06T01:35:16;35054.31;;;-140.95;72.17
38054;BME280;23859;50.672;7.164;2023-08-06T01:37:43;35020.19;;;-140.95;72.41
38054;BME280;23859;50.672;7.164;2023-08-06T01:40:13;35048.31;;;-140.95;71.76
38054;BME280;23859;50.672;7.164;2023-08-06T01:42:40;34990.03;;;-140.95;71.40
38054;BME280;23859;50.672;7.164;2023-08-06T01:45:09;35008.13;;;-140.95;72.29
38054;BME280;23859;50.672;7.164;2023-08-06T01:47:36;35014.16;;;-140.95;72.30
38054;BME280;23859;50.672;7.164;2023-08-06T01:50:03;35062.38;;;-140.95;72.89
38054;BME280;23859;50.672;7.164;2023-08-06T01:52:29;35062.38;;;-140.95;73.50
38054;BME280;23859;50.672;7.164;2023-08-06T01:54:55;35088.47;;;-140.95;73.33
38054;BME280;23859;50.672;7.164;2023-08-06T01:57:21;35072.41;;;-140.95;73.81
38054;BME280;23859;50.672;7.164;2023-08-06T01:59:47;35106.56;;;-140.95;73.95
38054;BME280;23859;50.672;7.164;2023-08-06T02:02:13;35108.56;;;-140.95;73.60
38054;BME280;23859;50.672;7.164;2023-08-06T02:04:39;35110.56;;;-140.95;73.19
38054;BME280;23859;50.672;7.164;2023-08-06T02:07:06;35150.75;;;-140.95;73.87
38054;BME280;23859;50.672;7.164;2023-08-06T02:09:32;35124.63;;;-140.95;73.57
38054;BME280;23859;50.672;7.164;2023-08-06T02:11:58;35112.59;;;-140.95;73.56
38054;BME280;23859;50.672;7.164;2023-08-06T02:14:24;35106.56;;;-140.95;73.64
38054;BME280;23859;50.672;7.164;2023-08-06T02:16:50;35104.53;;;-140.95;73.28
38054;BME280;23859;50.672;7.164;2023-08-06T02:19:16;35090.47;;;-140.95;73.88
38054;BME280;23859;50.672;7.164;2023-08-06T02:21:42;35152.75;;;-140.95;73.58
38054;BME280;23859;50.672;7.164;2023-08-06T02:24:08;35108.56;;;-140.95;74.24
38054;BME280;23859;50.672;7.164;2023-08-06T02:26:34;35152.75;;;-140.95;74.62
38054;BME280;23859;50.672;7.164;2023-08-06T02:29:00;35160.78;;;-140.95;74.87
38054;BME280;23859;50.672;7.164;2023-08-06T02:31:27;35154.78;;;-140.95;74.89
38054;BME280;23859;50.672;7.164;2023-08-06T02:33:53;35158.78;;;-140.95;75.00
38054;BME280;23859;50.672;7.164;2023-08-06T02:36:19;35140.72;;;-140.95;75.20
38054;BME280;23859;50.672;7.164;2023-08-06T02:38:45;35136.69;;;-140.95;75.24
38054;BME280;23859;50.672;7.164;2023-08-06T02:41:12;35158.78;;;-140.95;74.07
38054;BME280;23859;50.672;7.164;2023-08-06T02:43:38;35160.78;;;-140.95;74.93
38054;BME280;23859;50.672;7.164;2023-08-06T02:46:04;35104.53;;;-140.95;74.69
38054;BME280;23859;50.672;7.164;2023-08-06T02:48:30;35132.66;;;-140.95;74.85
38054;BME280;23859;50.672;7.164;2023-08-06T02:51:00;35148.75;;;-140.95;74.55
38054;BME280;23859;50.672;7.164;2023-08-06T02:53:26;35112.59;;;-140.95;73.86
38054;BME280;23859;50.672;7.164;2023-08-06T02:55:52;35090.47;;;-140.95;73.69
38054;BME280;23859;50.672;7.164;2023-08-06T02:58:18;35086.47;;;-140.95;73.41
38054;BME280;23859;50.672;7.164;2023-08-06T03:01:02;35112.59;;;-140.95;73.31
38054;BME280;23859;50.672;7.164;2023-08-06T03:03:30;35064.38;;;-140.95;72.53
38054;BME280;23859;50.672;7.164;2023-08-06T03:05:56;35468.16;;;-140.95;72.85
38054;BME280;23859;50.672;7.164;2023-08-06T03:08:23;35054.31;;;-140.95;71.97
38054;BME280;23859;50.672;7.164;2023-08-06T03:10:52;35062.38;;;-140.95;71.91
38054;BME280;23859;50.672;7.164;2023-08-06T03:13:18;35062.38;;;-140.95;72.01
38054;BME280;23859;50.672;7.164;2023-08-06T03:15:55;35060.34;;;-140.95;72.03
38054;BME280;23859;50.672;7.164;2023-08-06T03:18:22;35068.38;;;-140.95;71.18
38054;BME280;23859;50.672;7.164;2023-08-06T03:20:48;35040.25;;;-140.95;70.71
38054;BME280;23859;50.672;7.164;2023-08-06T03:23:15;35072.41;;;-140.95;71.47
38054;BME280;23859;50.672;7.164;2023-08-06T03:25:41;35088.47;;;-140.95;70.78
38054;BME280;23859;50.672;7.164;2023-08-06T03:28:07;35038.25;;;-140.95;70.70
38054;BME280;23859;50.672;7.164;2023-08-06T03:30:33;35100.53;;;-140.95;70.63
38054;BME280;23859;50.672;7.164;2023-08-06T03:33:03;35062.38;;;-140.95;70.74
38054;BME280;23859;50.672;7.164;2023-08-06T03:35:29;35080.44;;;-140.95;71.56
38054;BME280;23859;50.672;7.164;2023-08-06T03:37:56;35084.47;;;-140.95;72.89
38054;BME280;23859;50.672;7.164;2023-08-06T03:40:22;35114.59;;;-140.95;73.28
38054;BME280;23859;50.672;7.164;2023-08-06T03:42:48;35142.72;;;-140.95;74.23
38054;BME280;23859;50.672;7.164;2023-08-06T03:45:14;35142.72;;;-140.95;73.67
38054;BME280;23859;50.672;7.164;2023-08-06T03:47:40;35144.72;;;-140.95;73.81
38054;BME280;23859;50.672;7.164;2023-08-06T03:50:06;35164.81;;;-140.95;74.52
38054;BME280;23859;50.672;7.164;2023-08-06T03:52:33;35170.84;;;-140.95;74.54
38054;BME280;23859;50.672;7.164;2023-08-06T03:54:59;35190.94;;;-140.95;74.99
38054;BME280;23859;50.672;7.164;2023-08-06T03:57:25;35168.84;;;-140.95;74.89
38054;BME280;23859;50.672;7.164;2023-08-06T03:59:51;35172.84;;;-140.95;74.41
38054;BME280;23859;50.672;7.164;2023-08-06T04:02:17;35162.81;;;-140.95;74.33
38054;BME280;23859;50.672;7.164;2023-08-06T04:04:43;35132.66;;;-140.95;74.36
38054;BME280;23859;50.672;7.164;2023-08-06T04:07:09;35164.81;;;-140.95;74.69
38054;BME280;23859;50.672;7.164;2023-08-06T04:09:54;35164.81;;;-140.95;74.14
38054;BME280;23859;50.672;7.164;2023-08-06T04:12:21;35164.81;;;-140.95;73.77
38054;BME280;23859;50.672;7.164;2023-08-06T04:14:47;35136.69;;;-140.95;73.60
38054;BME280;23859;50.672;7.164;2023-08-06T04:17:13;35164.81;;;-140.95;73.79
38054;BME280;23859;50.672;7.164;2023-08-06T04:19:39;35144.72;;;-140.95;73.47
38054;BME280;23859;50.672;7.164;2023-08-06T04:22:05;35118.59;;;-140.95;73.92
38054;BME280;23859;50.672;7.164;2023-08-06T04:24:31;33363.28;;;-140.95;74.27
38054;BME280;23859;50.672;7.164;2023-08-06T04:26:57;35152.75;;;-140.95;74.66
38054;BME280;23859;50.672;7.164;2023-08-06T04:29:23;35172.84;;;-140.95;74.71
38054;BME280;23859;50.672;7.164;2023-08-06T04:31:49;35130.66;;;-140.95;74.91
38054;BME280;23859;50.672;7.164;2023-08-06T04:34:15;35148.75;;;-140.95;75.68
38054;BME280;23859;50.672;7.164;2023-08-06T04:36:41;35154.78;;;-140.95;76.30
38054;BME280;23859;50.672;7.164;2023-08-06T04:39:07;35160.78;;;-140.95;76.45
38054;BME280;23859;50.672;7.164;2023-08-06T04:41:33;35174.84;;;-140.95;77.26
38054;BME280;23859;50.672;7.164;2023-08-06T04:43:59;35178.88;;;-140.95;78.14
38054;BME280;23859;50.672;7.164;2023-08-06T04:46:25;35209.00;;;-140.95;77.98
38054;BME280;23859;50.672;7.164;2023-08-06T04:48:51;35196.94;;;-140.95;78.15
38054;BME280;23859;50.672;7.164;2023-08-06T04:51:17;35186.91;;;-140.95;77.78
38054;BME280;23859;50.672;7.164;2023-08-06T04:53:43;35188.91;;;-140.95;77.98
38054;BME280;23859;50.672;7.164;2023-08-06T04:56:09;35172.84;;;-140.95;77.96
38054;BME280;23859;50.672;7.164;2023-08-06T04:58:35;35144.72;;;-140.95;78.11
38054;BME280;23859;50.672;7.164;2023-08-06T05:01:01;35156.78;;;-140.95;78.52
38054;BME280;23859;50.672;7.164;2023-08-06T05:03:27;35168.84;;;-140.95;78.37
38054;BME280;23859;50.672;7.164;2023-08-06T05:05:53;35166.81;;;-140.95;78.37
38054;BME280;23859;50.672;7.164;2023-08-06T05:08:19;35200.97;;;-140.95;78.55
38054;BME280;23859;50.672;7.164;2023-08-06T05:10:46;35124.63;;;-140.95;78.56
38054;BME280;23859;50.672;7.164;2023-08-06T05:13:12;35182.88;;;-140.95;78.60
38054;BME280;23859;50.672;7.164;2023-08-06T05:15:38;35202.97;;;-140.95;79.17
38054;BME280;23859;50.672;7.164;2023-08-06T05:18:08;35164.81;;;-140.95;79.32
38054;BME280;23859;50.672;7.164;2023-08-06T05:20:38;35184.91;;;-140.95;79.44
38054;BME280;23859;50.672;7.164;2023-08-06T05:23:04;35223.06;;;-140.95;80.20
38054;BME280;23859;50.672;7.164;2023-08-06T05:25:30;35186.91;;;-140.95;80.33
38054;BME280;23859;50.672;7.164;2023-08-06T05:27:56;35176.88;;;-140.95;79.97
38054;BME280;23859;50.672;7.164;2023-08-06T05:30:22;35170.84;;;-140.95;79.97
38054;BME280;23859;50.672;7.164;2023-08-06T05:32:52;35150.75;;;-140.95;79.61
38054;BME280;23859;50.672;7.164;2023-08-06T05:35:18;35108.56;;;-140.95;79.75
38054;BME280;23859;50.672;7.164;2023-08-06T05:37:44;35104.53;;;-140.95;79.55
38054;BME280;23859;50.672;7.164;2023-08-06T05:40:10;35136.69;;;-140.95;79.52
38054;BME280;23859;50.672;7.164;2023-08-06T05:42:36;35136.69;;;-140.95;78.14
38054;BME280;23859;50.672;7.164;2023-08-06T05:45:03;35132.66;;;-140.95;78.69
38054;BME280;23859;50.672;7.164;2023-08-06T05:47:29;35132.66;;;-140.95;78.56
38054;BME280;23859;50.672;7.164;2023-08-06T05:49:55;35088.47;;;-140.95;78.80
38054;BME280;23859;50.672;7.164;2023-08-06T05:52:21;35114.59;;;-140.95;78.84
38054;BME280;23859;50.672;7.164;2023-08-06T05:54:47;35116.59;;;-140.95;79.25
38054;BME280;23859;50.672;7.164;2023-08-06T05:57:13;35114.59;;;-140.95;78.85
38054;BME280;23859;50.672;7.164;2023-08-06T05:59:40;35096.50;;;-140.95;78.76
38054;BME280;23859;50.672;7.164;2023-08-06T06:02:06;35092.50;;;-140.95;78.34
38054;BME280;23859;50.672;7.164;2023-08-06T06:04:33;35112.59;;;-140.95;78.71
38054;BME280;23859;50.672;7.164;2023-08-06T06:06:59;35096.50;;;-140.95;78.68
38054;BME280;23859;50.672;7.164;2023-08-06T06:09:25;35092.50;;;-140.95;78.95
38054;BME280;23859;50.672;7.164;2023-08-06T06:11:51;35092.50;;;-140.95;78.82
38054;BME280;23859;50.672;7.164;2023-08-06T06:14:18;35124.63;;;-140.95;78.83
38054;BME280;23859;50.672;7.164;2023-08-06T06:16:44;35144.72;;;-140.95;78.04
38054;BME280;23859;50.672;7.164;2023-08-06T06:19:11;35090.47;;;-140.95;78.35
38054;BME280;23859;50.672;7.164;2023-08-06T06:21:38;35098.53;;;-140.95;78.80
38054;BME280;23859;50.672;7.164;2023-08-06T06:24:07;35110.56;;;-140.95;79.02
38054;BME280;23859;50.672;7.164;2023-08-06T06:26:34;35064.38;;;-140.95;79.22
38054;BME280;23859;50.672;7.164;2023-08-06T06:29:00;35066.38;;;-140.95;79.04
38054;BME280;23859;50.672;7.164;2023-08-06T06:31:26;35060.34;;;-140.95;79.76
38054;BME280;23859;50.672;7.164;2023-08-06T06:33:52;35046.28;;;-140.95;79.53
38054;BME280;23859;50.672;7.164;2023-08-06T06:36:20;35070.41;;;-140.95;79.27
38054;BME280;23859;50.672;7.164;2023-08-06T06:38:46;35076.44;;;-140.95;78.84
38054;BME280;23859;50.672;7.164;2023-08-06T06:41:12;35060.34;;;-140.95;78.58
38054;BME280;23859;50.672;7.164;2023-08-06T06:43:38;35088.47;;;-140.95;79.09
38054;BME280;23859;50.672;7.164;2023-08-06T06:46:06;33353.25;;;-140.95;78.22
38054;BME280;23859;50.672;7.164;2023-08-06T06:48:33;35090.47;;;-140.95;78.09
38054;BME280;23859;50.672;7.164;2023-08-06T06:50:59;35036.25;;;-140.95;78.22
38054;BME280;23859;50.672;7.164;2023-08-06T06:53:26;35000.09;;;-140.95;78.35
38054;BME280;23859;50.672;7.164;2023-08-06T06:55:56;34992.06;;;-140.95;78.11
38054;BME280;23859;50.672;7.164;2023-08-06T06:58:26;34984.03;;;-140.95;77.80
38054;BME280;23859;50.672;7.164;2023-08-06T07:00:53;35030.22;;;-140.95;77.25
38054;BME280;23859;50.672;7.164;2023-08-06T07:03:20;34967.94;;;-140.95;77.04
38054;BME280;23859;50.672;7.164;2023-08-06T07:05:46;34923.75;;;-140.95;77.22
38054;BME280;23859;50.672;7.164;2023-08-06T07:08:12;34943.84;;;-140.95;77.24
38054;BME280;23859;50.672;7.164;2023-08-06T07:10:40;34937.81;;;-140.95;76.92
38054;BME280;23859;50.672;7.164;2023-08-06T07:13:06;34939.81;;;-140.95;76.34
38054;BME280;23859;50.672;7.164;2023-08-06T07:15:32;34935.81;;;-140.95;76.85
38054;BME280;23859;50.672;7.164;2023-08-06T07:17:59;34937.81;;;-140.95;76.71
38054;BME280;23859;50.672;7.164;2023-08-06T07:20:25;34889.59;;;-140.95;76.55
38054;BME280;23859;50.672;7.164;2023-08-06T07:22:51;34875.56;;;-140.95;76.23
38054;BME280;23859;50.672;7.164;2023-08-06T07:25:17;34835.38;;;-140.95;75.20
38054;BME280;23859;50.672;7.164;2023-08-06T07:27:43;34815.28;;;-140.95;73.52
38054;BME280;23859;50.672;7.164;2023-08-06T07:30:09;34781.13;;;-140.95;72.35
38054;BME280;23859;50.672;7.164;2023-08-06T07:32:37;34859.47;;;-140.95;72.54
38054;BME280;23859;50.672;7.164;2023-08-06T07:35:03;34811.28;;;-140.95;72.49
38054;BME280;23859;50.672;7.164;2023-08-06T07:37:29;34742.97;;;-140.95;73.64
38054;BME280;23859;50.672;7.164;2023-08-06T07:39:56;34726.91;;;-140.95;73.34
38054;BME280;23859;50.672;7.164;2023-08-06T07:42:22;34662.63;;;-140.95;72.24
38054;BME280;23859;50.672;7.164;2023-08-06T07:44:59;34676.69;;;-140.95;70.15
38054;BME280;23859;50.672;7.164;2023-08-06T07:47:25;34618.44;;;-140.95;71.25
38054;BME280;23859;50.672;7.164;2023-08-06T07:49:51;34658.63;;;-140.95;70.34
38054;BME280;23859;50.672;7.164;2023-08-06T07:52:17;34676.69;;;-140.95;70.12
38054;BME280;23859;50.672;7.164;2023-08-06T07:54:43;34654.59;;;-140.95;69.00
38054;BME280;23859;50.672;7.164;2023-08-06T07:57:09;34694.78;;;-140.95;69.07
38054;BME280;23859;50.672;7.164;2023-08-06T07:59:36;34722.88;;;-140.95;69.57
38054;BME280;23859;50.672;7.164;2023-08-06T08:02:02;34716.88;;;-140.95;69.65
38054;BME280;23859;50.672;7.164;2023-08-06T08:04:28;34686.72;;;-140.95;69.09
38054;BME280;23859;50.672;7.164;2023-08-06T08:06:54;34690.75;;;-140.95;66.08
38054;BME280;23859;50.672;7.164;2023-08-06T08:09:20;32706.75;;;-140.95;66.95
38054;BME280;23859;50.672;7.164;2023-08-06T08:11:46;34682.72;;;-140.95;69.68
38054;BME280;23859;50.672;7.164;2023-08-06T08:14:13;34664.63;;;-140.95;69.88
38054;BME280;23859;50.672;7.164;2023-08-06T08:16:39;34676.69;;;-140.95;70.00
38054;BME280;23859;50.672;7.164;2023-08-06T08:19:05;34596.34;;;-140.95;69.47
38054;BME280;23859;50.672;7.164;2023-08-06T08:21:31;34598.34;;;-140.95;68.65
38054;BME280;23859;50.672;7.164;2023-08-06T08:24:00;34562.19;;;-140.95;68.33
38054;BME280;23859;50.672;7.164;2023-08-06T08:26:26;34530.06;;;-140.95;67.86
38054;BME280;23859;50.672;7.164;2023-08-06T08:28:53;34505.97;;;-140.95;66.81
38054;BME280;23859;50.672;7.164;2023-08-06T08:31:20;34479.84;;;-140.95;66.43
38054;BME280;23859;50.672;7.164;2023-08-06T08:33:46;34542.13;;;-140.95;66.04
38054;BME280;23859;50.672;7.164;2023-08-06T08:36:12;34544.13;;;-140.95;66.15
38054;BME280;23859;50.672;7.164;2023-08-06T08:38:38;34538.09;;;-140.95;65.73
38054;BME280;23859;50.672;7.164;2023-08-06T08:41:04;34554.16;;;-140.95;64.46
38054;BME280;23859;50.672;7.164;2023-08-06T08:43:30;34449.72;;;-140.95;64.89
38054;BME280;23859;50.672;7.164;2023-08-06T08:45:57;34540.09;;;-140.95;61.98
38054;BME280;23859;50.672;7.164;2023-08-06T08:48:25;34465.78;;;-140.95;61.52
38054;BME280;23859;50.672;7.164;2023-08-06T08:50:53;34528.06;;;-140.95;61.64
38054;BME280;23859;50.672;7.164;2023-08-06T08:53:21;34477.84;;;-140.95;62.34
38054;BME280;23859;50.672;7.164;2023-08-06T08:55:49;34524.03;;;-140.95;63.97
38054;BME280;23859;50.672;7.164;2023-08-06T08:58:16;34574.25;;;-140.95;65.17
38054;BME280;23859;50.672;7.164;2023-08-06T09:00:43;34710.84;;;-140.95;67.92
38054;BME280;23859;50.672;7.164;2023-08-06T09:03:11;34751.00;;;-140.95;70.61
38054;BME280;23859;50.672;7.164;2023-08-06T09:05:44;34740.97;;;-140.95;69.70
38054;BME280;23859;50.672;7.164;2023-08-06T09:08:13;34763.06;;;-140.95;70.32
38054;BME280;23859;50.672;7.164;2023-08-06T09:10:41;34785.16;;;-140.95;71.36
38054;BME280;23859;50.672;7.164;2023-08-06T09:13:08;34855.47;;;-140.95;73.87
38054;BME280;23859;50.672;7.164;2023-08-06T09:15:34;34883.59;;;-140.95;74.30
38054;BME280;23859;50.672;7.164;2023-08-06T09:18:00;34819.31;;;-140.95;73.77
38054;BME280;23859;50.672;7.164;2023-08-06T09:20:34;34875.56;;;-140.95;72.92
38054;BME280;23859;50.672;7.164;2023-08-06T09:23:10;34827.34;;;-140.95;73.28
38054;BME280;23859;50.672;7.164;2023-08-06T09:25:38;34879.56;;;-140.95;73.64
38054;BME280;23859;50.672;7.164;2023-08-06T09:28:08;34909.69;;;-140.95;73.12
38054;BME280;23859;50.672;7.164;2023-08-06T09:30:37;34833.38;;;-140.95;73.92
38054;BME280;23859;50.672;7.164;2023-08-06T09:33:08;34891.63;;;-140.95;73.53
38054;BME280;23859;50.672;7.164;2023-08-06T09:35:40;34871.53;;;-140.95;73.10
38054;BME280;23859;50.672;7.164;2023-08-06T09:38:09;34795.19;;;-140.95;74.00
38054;BME280;23859;50.672;7.164;2023-08-06T09:40:37;34763.06;;;-140.95;73.67
38054;BME280;23859;50.672;7.164;2023-08-06T09:43:03;34732.94;;;-140.95;72.40
38054;BME280;23859;50.672;7.164;2023-08-06T09:45:36;34777.13;;;-140.95;73.14
38054;BME280;23859;50.672;7.164;2023-08-06T09:48:06;34811.28;;;-140.95;72.01
38054;BME280;23859;50.672;7.164;2023-08-06T09:50:37;34855.47;;;-140.95;72.25
38054;BME280;23859;50.672;7.164;2023-08-06T09:53:07;34907.69;;;-140.95;73.92
38054;BME280;23859;50.672;7.164;2023-08-06T09:55:37;34855.47;;;-140.95;73.46
38054;BME280;23859;50.672;7.164;2023-08-06T09:58:04;34969.97;;;-140.95;73.34
38054;BME280;23859;50.672;7.164;2023-08-06T10:00:31;34935.81;;;-140.95;73.30
38054;BME280;23859;50.672;7.164;2023-08-06T10:03:00;34923.75;;;-140.95;73.78
38054;BME280;23859;50.672;7.164;2023-08-06T10:05:27;34915.72;;;-140.95;74.69
38054;BME280;23859;50.672;7.164;2023-08-06T10:07:54;34931.78;;;-140.95;72.81
38054;BME280;23859;50.672;7.164;2023-08-06T10:10:21;34921.75;;;-140.95;72.72
38054;BME280;23859;50.672;7.164;2023-08-06T10:12:54;34951.88;;;-140.95;73.86
38054;BME280;23859;50.672;7.164;2023-08-06T10:15:25;34953.88;;;-140.95;73.18
38054;BME280;23859;50.672;7.164;2023-08-06T10:17:54;35004.09;;;-140.95;75.01
38054;BME280;23859;50.672;7.164;2023-08-06T10:20:22;34961.91;;;-140.95;74.22
38054;BME280;23859;50.672;7.164;2023-08-06T10:23:04;35032.22;;;-140.95;74.29
38054;BME280;23859;50.672;7.164;2023-08-06T10:25:35;34986.03;;;-140.95;74.77
38054;BME280;23859;50.672;7.164;2023-08-06T10:28:08;34986.03;;;-140.95;73.71
38054;BME280;23859;50.672;7.164;2023-08-06T10:30:40;34939.81;;;-140.95;73.41
38054;BME280;23859;50.672;7.164;2023-08-06T10:33:07;34980.00;;;-140.95;72.84
38054;BME280;23859;50.672;7.164;2023-08-06T10:38:08;35020.19;;;-140.95;74.29
38054;BME280;23859;50.672;7.164;2023-08-06T10:40:39;35022.19;;;-140.95;74.33
38054;BME280;23859;50.672;7.164;2023-08-06T10:43:05;34996.06;;;-140.95;73.22
38054;BME280;23859;50.672;7.164;2023-08-06T10:45:37;35022.19;;;-140.95;73.68
38054;BME280;23859;50.672;7.164;2023-08-06T10:48:04;35054.31;;;-140.95;72.88
38054;BME280;23859;50.672;7.164;2023-08-06T10:50:30;35032.22;;;-140.95;74.05
38054;BME280;23859;50.672;7.164;2023-08-06T10:52:57;35062.38;;;-140.95;73.42
38054;BME280;23859;50.672;7.164;2023-08-06T10:55:29;35084.47;;;-140.95;75.17
38054;BME280;23859;50.672;7.164;2023-08-06T10:57:56;35064.38;;;-140.95;75.46
38054;BME280;23859;50.672;7.164;2023-08-06T11:00:24;35098.53;;;-140.95;74.31
38054;BME280;23859;50.672;7.164;2023-08-06T11:02:51;35140.72;;;-140.95;75.73
38054;BME280;23859;50.672;7.164;2023-08-06T11:05:17;35068.38;;;-140.95;75.10
38054;BME280;23859;50.672;7.164;2023-08-06T11:07:44;35084.47;;;-140.95;74.18
38054;BME280;23859;50.672;7.164;2023-08-06T11:10:12;35052.31;;;-140.95;72.75
38054;BME280;23859;50.672;7.164;2023-08-06T11:12:39;35076.44;;;-140.95;75.08
38054;BME280;23859;50.672;7.164;2023-08-06T11:15:06;35088.47;;;-140.95;75.96
38054;BME280;23859;50.672;7.164;2023-08-06T11:17:33;35072.41;;;-140.95;73.73
38054;BME280;23859;50.672;7.164;2023-08-06T11:20:03;35124.63;;;-140.95;74.21
38054;BME280;23859;50.672;7.164;2023-08-06T11:22:30;35080.44;;;-140.95;74.09
38054;BME280;23859;50.672;7.164;2023-08-06T11:24:56;35068.38;;;-140.95;72.86
38054;BME280;23859;50.672;7.164;2023-08-06T11:27:23;35126.66;;;-140.95;73.84
38054;BME280;23859;50.672;7.164;2023-08-06T11:29:52;35124.63;;;-140.95;73.58
38054;BME280;23859;50.672;7.164;2023-08-06T11:32:18;35124.63;;;-140.95;74.14
38054;BME280;23859;50.672;7.164;2023-08-06T11:34:44;35180.88;;;-140.95;73.97
38054;BME280;23859;50.672;7.164;2023-08-06T11:37:10;35205.00;;;-140.95;74.33
38054;BME280;23859;50.672;7.164;2023-08-06T11:39:37;35172.84;;;-140.95;75.00
38054;BME280;23859;50.672;7.164;2023-08-06T11:42:05;35116.59;;;-140.95;74.91
38054;BME280;23859;50.672;7.164;2023-08-06T11:44:33;35194.94;;;-140.95;75.52
38054;BME280;23859;50.672;7.164;2023-08-06T11:47:01;35158.78;;;-140.95;73.37
38054;BME280;23859;50.672;7.164;2023-08-06T11:49:45;35172.84;;;-140.95;74.35
38054;BME280;23859;50.672;7.164;2023-08-06T11:52:16;35176.88;;;-140.95;75.33
38054;BME280;23859;50.672;7.164;2023-08-06T11:54:45;35176.88;;;-140.95;76.43
38054;BME280;23859;50.672;7.164;2023-08-06T11:57:12;35144.72;;;-140.95;75.93
38054;BME280;23859;50.672;7.164;2023-08-06T11:59:39;35164.81;;;-140.95;76.11
38054;BME280;23859;50.672;7.164;2023-08-06T12:02:09;35160.78;;;-140.95;75.13
38054;BME280;23859;50.672;7.164;2023-08-06T12:04:58;35156.78;;;-140.95;75.35
38054;BME280;23859;50.672;7.164;2023-08-06T12:07:28;35172.84;;;-140.95;75.19
38054;BME280;23859;50.672;7.164;2023-08-06T12:09:54;35172.84;;;-140.95;74.76
38054;BME280;23859;50.672;7.164;2023-08-06T12:12:20;35188.91;;;-140.95;76.41
38054;BME280;23859;50.672;7.164;2023-08-06T12:14:46;35192.94;;;-140.95;75.78
38054;BME280;23859;50.672;7.164;2023-08-06T12:17:12;35192.94;;;-140.95;76.49
38054;BME280;23859;50.672;7.164;2023-08-06T12:19:38;35182.88;;;-140.95;76.19
38054;BME280;23859;50.672;7.164;2023-08-06T12:22:04;35180.88;;;-140.95;77.07
38054;BME280;23859;50.672;7.164;2023-08-06T12:24:30;35156.78;;;-140.95;76.05
38054;BME280;23859;50.672;7.164;2023-08-06T12:26:59;35178.88;;;-140.95;76.41
38054;BME280;23859;50.672;7.164;2023-08-06T12:29:27;35150.75;;;-140.95;76.51
38054;BME280;23859;50.672;7.164;2023-08-06T12:31:54;35200.97;;;-140.95;76.43
38054;BME280;23859;50.672;7.164;2023-08-06T12:34:20;35188.91;;;-140.95;77.05
38054;BME280;23859;50.672;7.164;2023-08-06T12:36:46;35176.88;;;-140.95;76.92
38054;BME280;23859;50.672;7.164;2023-08-06T12:39:12;35152.75;;;-140.95;78.03
38054;BME280;23859;50.672;7.164;2023-08-06T12:41:38;35140.72;;;-140.95;77.22
38054;BME280;23859;50.672;7.164;2023-08-06T12:44:04;35180.88;;;-140.95;76.96
38054;BME280;23859;50.672;7.164;2023-08-06T12:46:31;35122.63;;;-140.95;76.22
38054;BME280;23859;50.672;7.164;2023-08-06T12:48:57;35140.72;;;-140.95;76.29
38054;BME280;23859;50.672;7.164;2023-08-06T12:51:24;35164.81;;;-140.95;76.74